This is the latest recevied weather packets stored in our database for station/object N7MLR. If no packets are shown the sender has not sent any weather packets the latest 1 day(s).
| Time | Temp. | Humidity | Pressure | Rain* | Wind** | Luminosity | Snow |
|---|---|---|---|---|---|---|---|
| 1778099423 | 23.33° C | 75% | 1010.2 hPa | 0 mm | - | 646 W/m² | - |
| 1778098211 | 22.78° C | 80% | 1010.4 hPa | 0 mm | - | 459 W/m² | - |
| 1778096391 | 26.11° C | 76% | 1010.4 hPa | 0 mm | - | 23 W/m² | - |
| 1778095785 | 27.22° C | 74% | 1010.2 hPa | 0 mm | - | 72 W/m² | - |
| 1778095482 | 27.22° C | 74% | 1009.9 hPa | 0 mm | - | 88 W/m² | - |
| 1778092754 | 28.33° C | 71% | 1010.5 hPa | 0 mm | - | 236 W/m² | - |
| 1778092449 | 28.33° C | 71% | 1010.4 hPa | 0 mm | - | 280 W/m² | - |
| 1778090025 | 28.33° C | 70% | 1010.8 hPa | 0 mm | - | 752 W/m² | - |
| 1778089722 | 27.78° C | 73% | 1010.7 hPa | 0 mm | - | 724 W/m² | - |
| 1778086995 | 22.22° C | 84% | 1011.4 hPa | 0 mm | - | 173 W/m² | - |
| 1778083965 | 25.56° C | 85% | 1011.1 hPa | 0 mm | - | 160 W/m² | - |
| 1778083662 | 25.56° C | 85% | 1011.2 hPa | 0 mm | - | 195 W/m² | - |
| 1778081318 | 25° C | 89% | 1011.1 hPa | 0 mm | - | 129 W/m² | - |
| 1778080714 | 24.44° C | 89% | 1010.5 hPa | 0 mm | - | 143 W/m² | - |
| 1778080410 | 25° C | 89% | 1010.3 hPa | 0 mm | - | 135 W/m² | - |
| 1778079804 | 24.44° C | 91% | 1010 hPa | 0 mm | - | 131 W/m² | - |
| 1778079197 | 23.89° C | 91% | 1010.3 hPa | 0 mm | - | 126 W/m² | - |
| 1778078290 | 23.89° C | 92% | 1010 hPa | 0 mm | - | 73 W/m² | - |
| 1778077685 | 23.89° C | 93% | 1010.3 hPa | 0 mm | - | 52 W/m² | - |
| 1778074959 | 23.33° C | 94% | 1009.3 hPa | 0 mm | - | 51 W/m² | - |
| 1778073747 | 23.33° C | 94% | 1008.9 hPa | 0 mm | - | 25 W/m² | - |
| 1778073445 | 23.33° C | 94% | 1009 hPa | 0 mm | - | 30 W/m² | - |
| 1778071930 | 23.89° C | 93% | 1008.6 hPa | 0 mm | - | 19 W/m² | - |
| 1778071326 | 23.33° C | 94% | 1008.8 hPa | 0 mm | - | 16 W/m² | - |
| 1778071023 | 23.33° C | 95% | 1008.5 hPa | 0 mm | - | 19 W/m² | - |
* Rain latest hour (hover to see other rain measurements)
** Current wind speed in m/s (hover to see current wind gust speed)